sensor_id;sensor_type;location;lat;lon;timestamp;P1;durP1;ratioP1;P2;durP2;ratioP2
49784;SDS011;35679;38.732;-121.358;2023-06-26T00:01:30;2.10;;;2.00;;
49784;SDS011;35679;38.732;-121.358;2023-06-26T00:04:19;2.15;;;2.05;;
49784;SDS011;35679;38.732;-121.358;2023-06-26T00:07:09;2.47;;;2.22;;
49784;SDS011;35679;38.732;-121.358;2023-06-26T00:10:00;2.20;;;2.10;;
49784;SDS011;35679;38.732;-121.358;2023-06-26T00:12:51;3.40;;;2.25;;
49784;SDS011;35679;38.732;-121.358;2023-06-26T00:15:40;2.10;;;2.00;;
49784;SDS011;35679;38.732;-121.358;2023-06-26T00:18:30;2.35;;;2.15;;
49784;SDS011;35679;38.732;-121.358;2023-06-26T00:21:19;2.45;;;2.25;;
49784;SDS011;35679;38.732;-121.358;2023-06-26T00:24:09;6.28;;;2.53;;
49784;SDS011;35679;38.732;-121.358;2023-06-26T00:26:58;2.13;;;2.03;;
49784;SDS011;35679;38.732;-121.358;2023-06-26T00:29:48;2.63;;;2.40;;
49784;SDS011;35679;38.732;-121.358;2023-06-26T00:32:37;2.30;;;2.20;;
49784;SDS011;35679;38.732;-121.358;2023-06-26T00:35:27;2.40;;;2.20;;
49784;SDS011;35679;38.732;-121.358;2023-06-26T00:38:16;2.33;;;2.13;;
49784;SDS011;35679;38.732;-121.358;2023-06-26T00:41:06;2.40;;;2.20;;
49784;SDS011;35679;38.732;-121.358;2023-06-26T00:44:00;2.30;;;2.10;;
49784;SDS011;35679;38.732;-121.358;2023-06-26T00:46:50;2.50;;;2.30;;
49784;SDS011;35679;38.732;-121.358;2023-06-26T00:49:40;2.00;;;1.90;;
49784;SDS011;35679;38.732;-121.358;2023-06-26T00:52:30;2.40;;;2.20;;
49784;SDS011;35679;38.732;-121.358;2023-06-26T00:55:20;2.58;;;2.15;;
49784;SDS011;35679;38.732;-121.358;2023-06-26T00:58:10;2.00;;;1.90;;
49784;SDS011;35679;38.732;-121.358;2023-06-26T01:01:00;2.30;;;2.17;;
49784;SDS011;35679;38.732;-121.358;2023-06-26T01:03:51;2.22;;;2.00;;
49784;SDS011;35679;38.732;-121.358;2023-06-26T01:06:46;2.30;;;2.10;;
49784;SDS011;35679;38.732;-121.358;2023-06-26T01:09:40;2.30;;;2.20;;
49784;SDS011;35679;38.732;-121.358;2023-06-26T01:12:31;2.15;;;2.05;;
49784;SDS011;35679;38.732;-121.358;2023-06-26T01:15:27;2.28;;;2.10;;
49784;SDS011;35679;38.732;-121.358;2023-06-26T01:18:17;2.75;;;2.55;;
49784;SDS011;35679;38.732;-121.358;2023-06-26T01:21:06;2.00;;;1.90;;
49784;SDS011;35679;38.732;-121.358;2023-06-26T01:24:00;2.38;;;2.22;;
49784;SDS011;35679;38.732;-121.358;2023-06-26T01:26:57;2.40;;;2.20;;
49784;SDS011;35679;38.732;-121.358;2023-06-26T01:29:49;2.67;;;2.45;;
49784;SDS011;35679;38.732;-121.358;2023-06-26T01:32:40;2.45;;;2.25;;
49784;SDS011;35679;38.732;-121.358;2023-06-26T01:35:30;2.38;;;2.17;;
49784;SDS011;35679;38.732;-121.358;2023-06-26T01:38:22;2.25;;;2.15;;
49784;SDS011;35679;38.732;-121.358;2023-06-26T01:41:12;3.38;;;2.20;;
49784;SDS011;35679;38.732;-121.358;2023-06-26T01:47:06;2.65;;;2.33;;
49784;SDS011;35679;38.732;-121.358;2023-06-26T01:50:05;2.25;;;2.10;;
49784;SDS011;35679;38.732;-121.358;2023-06-26T01:53:07;2.67;;;2.47;;
49784;SDS011;35679;38.732;-121.358;2023-06-26T01:56:06;2.60;;;2.08;;
49784;SDS011;35679;38.732;-121.358;2023-06-26T01:59:02;2.38;;;2.28;;
49784;SDS011;35679;38.732;-121.358;2023-06-26T02:04:43;2.20;;;2.10;;
49784;SDS011;35679;38.732;-121.358;2023-06-26T02:07:37;2.65;;;2.45;;
49784;SDS011;35679;38.732;-121.358;2023-06-26T02:10:26;2.97;;;2.80;;
49784;SDS011;35679;38.732;-121.358;2023-06-26T02:13:16;3.10;;;2.90;;
49784;SDS011;35679;38.732;-121.358;2023-06-26T02:16:05;2.78;;;2.58;;
49784;SDS011;35679;38.732;-121.358;2023-06-26T02:18:55;3.28;;;3.08;;
49784;SDS011;35679;38.732;-121.358;2023-06-26T02:21:46;3.20;;;3.00;;
49784;SDS011;35679;38.732;-121.358;2023-06-26T02:24:36;3.22;;;2.92;;
49784;SDS011;35679;38.732;-121.358;2023-06-26T02:27:26;2.88;;;2.78;;
49784;SDS011;35679;38.732;-121.358;2023-06-26T02:30:15;3.75;;;3.65;;
49784;SDS011;35679;38.732;-121.358;2023-06-26T02:33:05;3.83;;;3.63;;
49784;SDS011;35679;38.732;-121.358;2023-06-26T02:35:54;3.20;;;3.10;;
49784;SDS011;35679;38.732;-121.358;2023-06-26T02:38:44;3.60;;;3.40;;
49784;SDS011;35679;38.732;-121.358;2023-06-26T02:41:33;3.33;;;3.13;;
49784;SDS011;35679;38.732;-121.358;2023-06-26T02:44:23;3.45;;;3.25;;
49784;SDS011;35679;38.732;-121.358;2023-06-26T02:47:13;3.25;;;3.10;;
49784;SDS011;35679;38.732;-121.358;2023-06-26T02:50:05;2.90;;;2.80;;
49784;SDS011;35679;38.732;-121.358;2023-06-26T02:53:15;3.38;;;3.17;;
49784;SDS011;35679;38.732;-121.358;2023-06-26T02:56:06;3.67;;;3.47;;
49784;SDS011;35679;38.732;-121.358;2023-06-26T02:58:55;3.50;;;3.30;;
49784;SDS011;35679;38.732;-121.358;2023-06-26T03:01:47;3.10;;;3.00;;
49784;SDS011;35679;38.732;-121.358;2023-06-26T03:04:37;3.50;;;3.30;;
49784;SDS011;35679;38.732;-121.358;2023-06-26T03:07:30;3.58;;;3.38;;
49784;SDS011;35679;38.732;-121.358;2023-06-26T03:10:20;4.28;;;3.47;;
49784;SDS011;35679;38.732;-121.358;2023-06-26T03:13:09;3.65;;;3.38;;
49784;SDS011;35679;38.732;-121.358;2023-06-26T03:15:59;3.53;;;3.33;;
49784;SDS011;35679;38.732;-121.358;2023-06-26T03:18:49;2.72;;;2.60;;
49784;SDS011;35679;38.732;-121.358;2023-06-26T03:21:38;2.72;;;2.63;;
49784;SDS011;35679;38.732;-121.358;2023-06-26T03:24:28;3.22;;;3.03;;
49784;SDS011;35679;38.732;-121.358;2023-06-26T03:27:18;3.10;;;3.00;;
49784;SDS011;35679;38.732;-121.358;2023-06-26T03:30:09;3.15;;;2.95;;
49784;SDS011;35679;38.732;-121.358;2023-06-26T03:33:01;3.22;;;3.03;;
49784;SDS011;35679;38.732;-121.358;2023-06-26T03:35:50;3.20;;;3.00;;
49784;SDS011;35679;38.732;-121.358;2023-06-26T03:38:40;3.40;;;3.20;;
49784;SDS011;35679;38.732;-121.358;2023-06-26T03:41:30;3.38;;;3.17;;
49784;SDS011;35679;38.732;-121.358;2023-06-26T03:44:19;4.43;;;4.22;;
49784;SDS011;35679;38.732;-121.358;2023-06-26T03:47:11;4.18;;;3.88;;
49784;SDS011;35679;38.732;-121.358;2023-06-26T03:50:00;3.50;;;3.30;;
49784;SDS011;35679;38.732;-121.358;2023-06-26T03:52:50;4.00;;;2.97;;
49784;SDS011;35679;38.732;-121.358;2023-06-26T03:55:40;3.10;;;2.90;;
49784;SDS011;35679;38.732;-121.358;2023-06-26T03:58:29;3.30;;;3.10;;
49784;SDS011;35679;38.732;-121.358;2023-06-26T04:01:18;3.05;;;2.90;;
49784;SDS011;35679;38.732;-121.358;2023-06-26T04:04:10;2.50;;;2.30;;
49784;SDS011;35679;38.732;-121.358;2023-06-26T04:06:59;2.42;;;2.22;;
49784;SDS011;35679;38.732;-121.358;2023-06-26T04:09:49;2.60;;;2.40;;
49784;SDS011;35679;38.732;-121.358;2023-06-26T04:12:38;2.58;;;2.40;;
49784;SDS011;35679;38.732;-121.358;2023-06-26T04:15:27;2.50;;;2.30;;
49784;SDS011;35679;38.732;-121.358;2023-06-26T04:18:17;2.67;;;2.58;;
49784;SDS011;35679;38.732;-121.358;2023-06-26T04:21:12;2.75;;;2.63;;
49784;SDS011;35679;38.732;-121.358;2023-06-26T04:24:01;2.45;;;2.25;;
49784;SDS011;35679;38.732;-121.358;2023-06-26T04:26:51;5.05;;;4.85;;
49784;SDS011;35679;38.732;-121.358;2023-06-26T04:29:40;4.63;;;4.43;;
49784;SDS011;35679;38.732;-121.358;2023-06-26T04:32:30;5.82;;;5.53;;
49784;SDS011;35679;38.732;-121.358;2023-06-26T04:35:20;5.47;;;5.28;;
49784;SDS011;35679;38.732;-121.358;2023-06-26T04:38:09;6.10;;;5.80;;
49784;SDS011;35679;38.732;-121.358;2023-06-26T04:41:00;5.50;;;5.10;;
49784;SDS011;35679;38.732;-121.358;2023-06-26T04:43:50;5.43;;;5.13;;
49784;SDS011;35679;38.732;-121.358;2023-06-26T04:46:39;6.40;;;6.00;;
49784;SDS011;35679;38.732;-121.358;2023-06-26T04:52:22;7.63;;;7.20;;
49784;SDS011;35679;38.732;-121.358;2023-06-26T04:55:11;7.20;;;6.72;;
49784;SDS011;35679;38.732;-121.358;2023-06-26T04:58:01;7.35;;;7.05;;
49784;SDS011;35679;38.732;-121.358;2023-06-26T05:00:51;7.00;;;6.68;;
49784;SDS011;35679;38.732;-121.358;2023-06-26T05:03:40;7.10;;;6.70;;
49784;SDS011;35679;38.732;-121.358;2023-06-26T05:06:30;6.78;;;6.38;;
49784;SDS011;35679;38.732;-121.358;2023-06-26T05:09:19;7.05;;;6.65;;
49784;SDS011;35679;38.732;-121.358;2023-06-26T05:12:09;6.90;;;6.40;;
49784;SDS011;35679;38.732;-121.358;2023-06-26T05:14:58;6.43;;;6.13;;
49784;SDS011;35679;38.732;-121.358;2023-06-26T05:17:48;6.18;;;5.88;;
49784;SDS011;35679;38.732;-121.358;2023-06-26T05:20:38;6.80;;;6.50;;
49784;SDS011;35679;38.732;-121.358;2023-06-26T05:23:31;6.60;;;6.30;;
49784;SDS011;35679;38.732;-121.358;2023-06-26T05:26:22;5.72;;;5.43;;
49784;SDS011;35679;38.732;-121.358;2023-06-26T05:29:11;6.72;;;6.43;;
49784;SDS011;35679;38.732;-121.358;2023-06-26T05:32:01;7.07;;;6.68;;
49784;SDS011;35679;38.732;-121.358;2023-06-26T05:34:51;7.30;;;7.00;;
49784;SDS011;35679;38.732;-121.358;2023-06-26T05:37:46;6.90;;;6.60;;
49784;SDS011;35679;38.732;-121.358;2023-06-26T05:43:28;6.95;;;6.55;;
49784;SDS011;35679;38.732;-121.358;2023-06-26T05:46:18;7.60;;;7.20;;
49784;SDS011;35679;38.732;-121.358;2023-06-26T05:49:07;6.03;;;5.65;;
49784;SDS011;35679;38.732;-121.358;2023-06-26T05:51:59;6.67;;;6.37;;
49784;SDS011;35679;38.732;-121.358;2023-06-26T05:54:48;6.40;;;6.05;;
49784;SDS011;35679;38.732;-121.358;2023-06-26T05:57:38;8.20;;;7.80;;
49784;SDS011;35679;38.732;-121.358;2023-06-26T06:00:29;7.43;;;6.93;;
49784;SDS011;35679;38.732;-121.358;2023-06-26T06:03:19;4.10;;;3.90;;
49784;SDS011;35679;38.732;-121.358;2023-06-26T06:06:08;6.82;;;6.43;;
49784;SDS011;35679;38.732;-121.358;2023-06-26T06:08:58;7.28;;;6.88;;
49784;SDS011;35679;38.732;-121.358;2023-06-26T06:11:47;6.47;;;6.07;;
49784;SDS011;35679;38.732;-121.358;2023-06-26T06:14:37;6.10;;;5.70;;
49784;SDS011;35679;38.732;-121.358;2023-06-26T06:17:26;5.80;;;5.40;;
49784;SDS011;35679;38.732;-121.358;2023-06-26T06:20:17;5.88;;;5.57;;
49784;SDS011;35679;38.732;-121.358;2023-06-26T06:25:59;5.45;;;5.05;;
49784;SDS011;35679;38.732;-121.358;2023-06-26T06:28:49;5.72;;;5.32;;
49784;SDS011;35679;38.732;-121.358;2023-06-26T06:31:38;5.90;;;5.53;;
49784;SDS011;35679;38.732;-121.358;2023-06-26T06:34:28;4.95;;;4.60;;
49784;SDS011;35679;38.732;-121.358;2023-06-26T06:37:17;5.82;;;5.53;;
49784;SDS011;35679;38.732;-121.358;2023-06-26T06:40:08;3.20;;;2.90;;
49784;SDS011;35679;38.732;-121.358;2023-06-26T06:42:58;3.78;;;3.47;;
49784;SDS011;35679;38.732;-121.358;2023-06-26T06:45:48;3.50;;;3.20;;
49784;SDS011;35679;38.732;-121.358;2023-06-26T06:48:37;3.17;;;2.45;;
49784;SDS011;35679;38.732;-121.358;2023-06-26T06:51:27;2.63;;;2.42;;
49784;SDS011;35679;38.732;-121.358;2023-06-26T06:54:16;2.80;;;2.50;;
49784;SDS011;35679;38.732;-121.358;2023-06-26T06:57:06;2.70;;;2.50;;
49784;SDS011;35679;38.732;-121.358;2023-06-26T06:59:55;2.95;;;2.63;;
49784;SDS011;35679;38.732;-121.358;2023-06-26T07:02:45;2.85;;;2.53;;
49784;SDS011;35679;38.732;-121.358;2023-06-26T07:05:35;2.70;;;2.50;;
49784;SDS011;35679;38.732;-121.358;2023-06-26T07:08:24;3.08;;;2.58;;
49784;SDS011;35679;38.732;-121.358;2023-06-26T07:11:14;2.90;;;2.60;;
49784;SDS011;35679;38.732;-121.358;2023-06-26T07:14:03;2.97;;;2.63;;
49784;SDS011;35679;38.732;-121.358;2023-06-26T07:16:53;2.67;;;2.42;;
49784;SDS011;35679;38.732;-121.358;2023-06-26T07:19:42;2.50;;;2.30;;
49784;SDS011;35679;38.732;-121.358;2023-06-26T07:22:32;2.85;;;2.65;;
49784;SDS011;35679;38.732;-121.358;2023-06-26T07:25:21;2.72;;;2.53;;
49784;SDS011;35679;38.732;-121.358;2023-06-26T07:28:11;2.65;;;2.45;;
49784;SDS011;35679;38.732;-121.358;2023-06-26T07:31:01;2.35;;;2.25;;
49784;SDS011;35679;38.732;-121.358;2023-06-26T07:33:50;4.60;;;2.33;;
49784;SDS011;35679;38.732;-121.358;2023-06-26T07:36:40;2.53;;;2.33;;
49784;SDS011;35679;38.732;-121.358;2023-06-26T07:39:29;2.80;;;2.60;;
49784;SDS011;35679;38.732;-121.358;2023-06-26T07:42:18;2.85;;;2.65;;
49784;SDS011;35679;38.732;-121.358;2023-06-26T07:45:08;2.80;;;2.60;;
49784;SDS011;35679;38.732;-121.358;2023-06-26T07:48:00;2.70;;;2.50;;
49784;SDS011;35679;38.732;-121.358;2023-06-26T07:50:50;2.88;;;2.40;;
49784;SDS011;35679;38.732;-121.358;2023-06-26T07:53:40;3.13;;;2.85;;
49784;SDS011;35679;38.732;-121.358;2023-06-26T07:56:30;2.42;;;2.28;;
49784;SDS011;35679;38.732;-121.358;2023-06-26T07:59:20;2.70;;;2.50;;
49784;SDS011;35679;38.732;-121.358;2023-06-26T08:02:10;2.92;;;2.60;;
49784;SDS011;35679;38.732;-121.358;2023-06-26T08:05:00;2.88;;;2.50;;
49784;SDS011;35679;38.732;-121.358;2023-06-26T08:07:50;2.65;;;2.45;;
49784;SDS011;35679;38.732;-121.358;2023-06-26T08:10:39;3.38;;;2.70;;
49784;SDS011;35679;38.732;-121.358;2023-06-26T08:13:29;2.88;;;2.67;;
49784;SDS011;35679;38.732;-121.358;2023-06-26T08:16:18;2.83;;;2.63;;
49784;SDS011;35679;38.732;-121.358;2023-06-26T08:19:08;3.03;;;2.75;;
49784;SDS011;35679;38.732;-121.358;2023-06-26T08:21:57;3.40;;;2.50;;
49784;SDS011;35679;38.732;-121.358;2023-06-26T08:24:46;2.70;;;2.03;;
49784;SDS011;35679;38.732;-121.358;2023-06-26T08:27:36;3.00;;;2.80;;
49784;SDS011;35679;38.732;-121.358;2023-06-26T08:30:25;3.17;;;2.63;;
49784;SDS011;35679;38.732;-121.358;2023-06-26T08:33:16;3.22;;;2.40;;
49784;SDS011;35679;38.732;-121.358;2023-06-26T08:36:06;2.88;;;2.50;;
49784;SDS011;35679;38.732;-121.358;2023-06-26T08:38:55;2.60;;;2.40;;
49784;SDS011;35679;38.732;-121.358;2023-06-26T08:41:45;3.30;;;2.33;;
49784;SDS011;35679;38.732;-121.358;2023-06-26T08:44:34;2.47;;;2.28;;
49784;SDS011;35679;38.732;-121.358;2023-06-26T08:47:35;3.13;;;2.50;;
49784;SDS011;35679;38.732;-121.358;2023-06-26T08:50:28;2.40;;;2.30;;
49784;SDS011;35679;38.732;-121.358;2023-06-26T08:53:41;2.35;;;2.15;;
49784;SDS011;35679;38.732;-121.358;2023-06-26T08:56:42;2.75;;;2.50;;
49784;SDS011;35679;38.732;-121.358;2023-06-26T08:59:35;2.35;;;2.15;;
49784;SDS011;35679;38.732;-121.358;2023-06-26T09:02:24;3.45;;;2.60;;
49784;SDS011;35679;38.732;-121.358;2023-06-26T09:05:15;3.05;;;2.20;;
49784;SDS011;35679;38.732;-121.358;2023-06-26T09:08:04;2.70;;;2.50;;
49784;SDS011;35679;38.732;-121.358;2023-06-26T09:10:55;2.55;;;2.35;;
49784;SDS011;35679;38.732;-121.358;2023-06-26T09:13:45;2.30;;;2.13;;
49784;SDS011;35679;38.732;-121.358;2023-06-26T09:16:39;2.40;;;2.20;;
49784;SDS011;35679;38.732;-121.358;2023-06-26T09:19:30;2.33;;;2.10;;
49784;SDS011;35679;38.732;-121.358;2023-06-26T09:22:23;2.80;;;2.60;;
49784;SDS011;35679;38.732;-121.358;2023-06-26T09:25:12;2.30;;;2.20;;
49784;SDS011;35679;38.732;-121.358;2023-06-26T09:28:02;2.58;;;2.38;;
49784;SDS011;35679;38.732;-121.358;2023-06-26T09:30:52;2.40;;;2.30;;
49784;SDS011;35679;38.732;-121.358;2023-06-26T09:33:41;2.78;;;2.08;;
49784;SDS011;35679;38.732;-121.358;2023-06-26T09:36:36;2.28;;;2.17;;
49784;SDS011;35679;38.732;-121.358;2023-06-26T09:39:27;2.55;;;2.38;;
49784;SDS011;35679;38.732;-121.358;2023-06-26T09:42:19;2.15;;;2.05;;
49784;SDS011;35679;38.732;-121.358;2023-06-26T09:45:12;2.33;;;2.15;;
49784;SDS011;35679;38.732;-121.358;2023-06-26T09:48:08;2.28;;;2.17;;
49784;SDS011;35679;38.732;-121.358;2023-06-26T09:50:57;3.20;;;2.30;;
49784;SDS011;35679;38.732;-121.358;2023-06-26T09:54:00;3.03;;;2.13;;
49784;SDS011;35679;38.732;-121.358;2023-06-26T09:56:51;2.83;;;2.30;;
49784;SDS011;35679;38.732;-121.358;2023-06-26T09:59:42;2.40;;;2.25;;
49784;SDS011;35679;38.732;-121.358;2023-06-26T10:02:35;3.80;;;2.33;;
49784;SDS011;35679;38.732;-121.358;2023-06-26T10:05:25;2.10;;;2.00;;
49784;SDS011;35679;38.732;-121.358;2023-06-26T10:08:14;2.75;;;2.05;;
49784;SDS011;35679;38.732;-121.358;2023-06-26T10:11:05;2.00;;;1.90;;
49784;SDS011;35679;38.732;-121.358;2023-06-26T10:14:01;2.70;;;2.17;;
49784;SDS011;35679;38.732;-121.358;2023-06-26T10:17:06;2.20;;;2.10;;
49784;SDS011;35679;38.732;-121.358;2023-06-26T10:19:58;2.55;;;2.35;;
49784;SDS011;35679;38.732;-121.358;2023-06-26T10:22:52;2.72;;;2.53;;
49784;SDS011;35679;38.732;-121.358;2023-06-26T10:25:45;2.60;;;2.40;;
49784;SDS011;35679;38.732;-121.358;2023-06-26T10:28:37;2.40;;;2.20;;
49784;SDS011;35679;38.732;-121.358;2023-06-26T10:31:29;2.60;;;2.20;;
49784;SDS011;35679;38.732;-121.358;2023-06-26T10:34:21;3.07;;;2.23;;
49784;SDS011;35679;38.732;-121.358;2023-06-26T10:37:11;2.50;;;2.30;;
49784;SDS011;35679;38.732;-121.358;2023-06-26T10:40:01;2.20;;;2.10;;
49784;SDS011;35679;38.732;-121.358;2023-06-26T10:42:51;2.50;;;2.30;;
49784;SDS011;35679;38.732;-121.358;2023-06-26T10:48:56;3.10;;;2.17;;
49784;SDS011;35679;38.732;-121.358;2023-06-26T10:51:48;3.30;;;2.30;;
49784;SDS011;35679;38.732;-121.358;2023-06-26T10:54:38;2.60;;;2.40;;
49784;SDS011;35679;38.732;-121.358;2023-06-26T10:57:28;2.65;;;2.45;;
49784;SDS011;35679;38.732;-121.358;2023-06-26T11:00:17;2.38;;;2.22;;
49784;SDS011;35679;38.732;-121.358;2023-06-26T11:03:22;2.58;;;2.38;;
49784;SDS011;35679;38.732;-121.358;2023-06-26T11:06:13;2.63;;;2.42;;
49784;SDS011;35679;38.732;-121.358;2023-06-26T11:14:53;2.60;;;2.40;;
49784;SDS011;35679;38.732;-121.358;2023-06-26T11:17:43;2.60;;;2.40;;
49784;SDS011;35679;38.732;-121.358;2023-06-26T11:20:33;2.72;;;2.28;;
49784;SDS011;35679;38.732;-121.358;2023-06-26T11:23:23;2.58;;;2.38;;
49784;SDS011;35679;38.732;-121.358;2023-06-26T11:26:17;2.25;;;2.15;;
49784;SDS011;35679;38.732;-121.358;2023-06-26T11:29:10;2.55;;;2.35;;
49784;SDS011;35679;38.732;-121.358;2023-06-26T11:32:01;2.60;;;2.40;;
49784;SDS011;35679;38.732;-121.358;2023-06-26T11:34:54;2.88;;;2.67;;
49784;SDS011;35679;38.732;-121.358;2023-06-26T11:37:43;2.40;;;2.20;;
49784;SDS011;35679;38.732;-121.358;2023-06-26T11:40:33;2.80;;;2.60;;
49784;SDS011;35679;38.732;-121.358;2023-06-26T11:43:24;2.60;;;2.40;;
49784;SDS011;35679;38.732;-121.358;2023-06-26T11:46:15;2.70;;;2.50;;
49784;SDS011;35679;38.732;-121.358;2023-06-26T11:49:06;2.42;;;2.22;;
49784;SDS011;35679;38.732;-121.358;2023-06-26T11:51:56;2.55;;;2.35;;
49784;SDS011;35679;38.732;-121.358;2023-06-26T11:54:46;2.80;;;2.60;;
49784;SDS011;35679;38.732;-121.358;2023-06-26T11:57:37;2.88;;;2.60;;
49784;SDS011;35679;38.732;-121.358;2023-06-26T12:00:26;3.20;;;2.47;;
49784;SDS011;35679;38.732;-121.358;2023-06-26T12:03:16;2.70;;;2.50;;
49784;SDS011;35679;38.732;-121.358;2023-06-26T12:06:06;2.95;;;2.47;;
49784;SDS011;35679;38.732;-121.358;2023-06-26T12:08:55;3.28;;;2.60;;
49784;SDS011;35679;38.732;-121.358;2023-06-26T12:11:48;2.47;;;2.27;;
49784;SDS011;35679;38.732;-121.358;2023-06-26T12:14:40;2.60;;;2.40;;
49784;SDS011;35679;38.732;-121.358;2023-06-26T12:17:30;2.97;;;2.50;;
49784;SDS011;35679;38.732;-121.358;2023-06-26T12:20:23;2.72;;;2.53;;
49784;SDS011;35679;38.732;-121.358;2023-06-26T12:23:14;2.97;;;2.67;;
49784;SDS011;35679;38.732;-121.358;2023-06-26T12:26:19;3.22;;;2.40;;
49784;SDS011;35679;38.732;-121.358;2023-06-26T12:29:10;3.42;;;2.85;;
49784;SDS011;35679;38.732;-121.358;2023-06-26T12:32:04;2.90;;;2.70;;
49784;SDS011;35679;38.732;-121.358;2023-06-26T12:34:58;2.95;;;2.60;;
49784;SDS011;35679;38.732;-121.358;2023-06-26T12:37:47;4.82;;;3.10;;
49784;SDS011;35679;38.732;-121.358;2023-06-26T12:40:44;3.45;;;2.95;;
49784;SDS011;35679;38.732;-121.358;2023-06-26T12:43:37;3.13;;;2.72;;
49784;SDS011;35679;38.732;-121.358;2023-06-26T12:46:34;5.15;;;3.05;;
49784;SDS011;35679;38.732;-121.358;2023-06-26T12:49:30;4.32;;;3.75;;
49784;SDS011;35679;38.732;-121.358;2023-06-26T12:52:23;4.30;;;3.25;;
49784;SDS011;35679;38.732;-121.358;2023-06-26T12:55:13;4.25;;;3.50;;
49784;SDS011;35679;38.732;-121.358;2023-06-26T12:58:04;6.95;;;3.70;;
49784;SDS011;35679;38.732;-121.358;2023-06-26T13:00:54;4.55;;;3.60;;
49784;SDS011;35679;38.732;-121.358;2023-06-26T13:03:46;3.67;;;3.37;;
49784;SDS011;35679;38.732;-121.358;2023-06-26T13:06:36;4.32;;;3.35;;
49784;SDS011;35679;38.732;-121.358;2023-06-26T13:09:25;4.18;;;3.47;;
49784;SDS011;35679;38.732;-121.358;2023-06-26T13:12:16;6.30;;;3.47;;
49784;SDS011;35679;38.732;-121.358;2023-06-26T13:15:05;4.93;;;3.50;;
49784;SDS011;35679;38.732;-121.358;2023-06-26T13:17:55;4.38;;;3.55;;
49784;SDS011;35679;38.732;-121.358;2023-06-26T13:20:45;3.60;;;3.30;;
49784;SDS011;35679;38.732;-121.358;2023-06-26T13:23:35;5.63;;;3.50;;
49784;SDS011;35679;38.732;-121.358;2023-06-26T13:26:24;4.85;;;3.53;;
49784;SDS011;35679;38.732;-121.358;2023-06-26T13:29:19;6.25;;;3.58;;
49784;SDS011;35679;38.732;-121.358;2023-06-26T13:32:09;6.72;;;4.07;;
49784;SDS011;35679;38.732;-121.358;2023-06-26T13:34:58;5.40;;;3.58;;
49784;SDS011;35679;38.732;-121.358;2023-06-26T13:37:48;5.32;;;3.83;;
49784;SDS011;35679;38.732;-121.358;2023-06-26T13:40:37;5.45;;;3.55;;
49784;SDS011;35679;38.732;-121.358;2023-06-26T13:43:28;4.25;;;3.67;;
49784;SDS011;35679;38.732;-121.358;2023-06-26T13:46:18;8.98;;;3.85;;
49784;SDS011;35679;38.732;-121.358;2023-06-26T13:49:08;4.82;;;3.70;;
49784;SDS011;35679;38.732;-121.358;2023-06-26T13:51:57;5.60;;;4.32;;
49784;SDS011;35679;38.732;-121.358;2023-06-26T13:54:47;5.43;;;3.63;;
49784;SDS011;35679;38.732;-121.358;2023-06-26T13:57:39;6.47;;;4.10;;
49784;SDS011;35679;38.732;-121.358;2023-06-26T14:00:30;3.90;;;3.60;;
49784;SDS011;35679;38.732;-121.358;2023-06-26T14:03:20;6.22;;;4.10;;
49784;SDS011;35679;38.732;-121.358;2023-06-26T14:06:09;5.78;;;4.15;;
49784;SDS011;35679;38.732;-121.358;2023-06-26T14:08:59;4.80;;;4.32;;
49784;SDS011;35679;38.732;-121.358;2023-06-26T14:11:48;6.30;;;4.38;;
49784;SDS011;35679;38.732;-121.358;2023-06-26T14:14:37;7.15;;;4.60;;
49784;SDS011;35679;38.732;-121.358;2023-06-26T14:17:27;6.70;;;4.63;;
49784;SDS011;35679;38.732;-121.358;2023-06-26T14:20:17;5.85;;;4.53;;
49784;SDS011;35679;38.732;-121.358;2023-06-26T14:23:09;7.55;;;4.82;;
49784;SDS011;35679;38.732;-121.358;2023-06-26T14:25:58;5.07;;;4.55;;
49784;SDS011;35679;38.732;-121.358;2023-06-26T14:28:48;6.90;;;4.57;;
49784;SDS011;35679;38.732;-121.358;2023-06-26T14:31:37;7.55;;;4.25;;
49784;SDS011;35679;38.732;-121.358;2023-06-26T14:34:27;5.35;;;4.22;;
49784;SDS011;35679;38.732;-121.358;2023-06-26T14:37:16;5.28;;;4.40;;
49784;SDS011;35679;38.732;-121.358;2023-06-26T14:40:07;6.03;;;4.53;;
49784;SDS011;35679;38.732;-121.358;2023-06-26T14:42:58;8.60;;;4.97;;
49784;SDS011;35679;38.732;-121.358;2023-06-26T14:45:47;4.68;;;4.07;;
49784;SDS011;35679;38.732;-121.358;2023-06-26T14:48:37;7.10;;;4.07;;
49784;SDS011;35679;38.732;-121.358;2023-06-26T14:51:27;7.30;;;4.10;;
49784;SDS011;35679;38.732;-121.358;2023-06-26T14:54:16;5.47;;;4.43;;
49784;SDS011;35679;38.732;-121.358;2023-06-26T14:57:06;6.50;;;4.80;;
49784;SDS011;35679;38.732;-121.358;2023-06-26T14:59:56;4.90;;;4.22;;
49784;SDS011;35679;38.732;-121.358;2023-06-26T15:02:45;5.88;;;3.88;;
49784;SDS011;35679;38.732;-121.358;2023-06-26T15:05:35;8.40;;;4.25;;
49784;SDS011;35679;38.732;-121.358;2023-06-26T15:08:24;4.78;;;4.38;;
49784;SDS011;35679;38.732;-121.358;2023-06-26T15:11:14;8.68;;;4.88;;
49784;SDS011;35679;38.732;-121.358;2023-06-26T15:14:03;6.07;;;4.50;;
49784;SDS011;35679;38.732;-121.358;2023-06-26T15:16:52;4.80;;;4.05;;
49784;SDS011;35679;38.732;-121.358;2023-06-26T15:19:42;5.10;;;4.32;;
49784;SDS011;35679;38.732;-121.358;2023-06-26T15:22:31;13.93;;;4.72;;
49784;SDS011;35679;38.732;-121.358;2023-06-26T15:25:20;6.13;;;4.63;;
49784;SDS011;35679;38.732;-121.358;2023-06-26T15:28:10;10.80;;;4.72;;
49784;SDS011;35679;38.732;-121.358;2023-06-26T15:31:00;15.20;;;5.32;;
49784;SDS011;35679;38.732;-121.358;2023-06-26T15:33:50;8.85;;;4.95;;
49784;SDS011;35679;38.732;-121.358;2023-06-26T15:36:39;5.45;;;4.95;;
49784;SDS011;35679;38.732;-121.358;2023-06-26T15:39:28;10.70;;;5.35;;
49784;SDS011;35679;38.732;-121.358;2023-06-26T15:42:18;10.23;;;5.25;;
49784;SDS011;35679;38.732;-121.358;2023-06-26T15:45:07;6.13;;;5.47;;
49784;SDS011;35679;38.732;-121.358;2023-06-26T15:47:57;5.32;;;4.70;;
49784;SDS011;35679;38.732;-121.358;2023-06-26T15:50:49;6.53;;;4.47;;
49784;SDS011;35679;38.732;-121.358;2023-06-26T15:53:41;7.20;;;3.88;;
49784;SDS011;35679;38.732;-121.358;2023-06-26T15:56:32;11.30;;;4.28;;
49784;SDS011;35679;38.732;-121.358;2023-06-26T15:59:21;6.68;;;4.22;;
49784;SDS011;35679;38.732;-121.358;2023-06-26T16:02:10;6.38;;;4.15;;
49784;SDS011;35679;38.732;-121.358;2023-06-26T16:05:00;10.35;;;3.95;;
49784;SDS011;35679;38.732;-121.358;2023-06-26T16:07:49;8.20;;;4.55;;
49784;SDS011;35679;38.732;-121.358;2023-06-26T16:10:44;5.80;;;4.13;;
49784;SDS011;35679;38.732;-121.358;2023-06-26T16:13:33;6.85;;;4.10;;
49784;SDS011;35679;38.732;-121.358;2023-06-26T16:16:23;5.88;;;3.83;;
49784;SDS011;35679;38.732;-121.358;2023-06-26T16:19:12;5.72;;;3.92;;
49784;SDS011;35679;38.732;-121.358;2023-06-26T16:22:02;4.90;;;3.88;;
49784;SDS011;35679;38.732;-121.358;2023-06-26T16:24:51;4.50;;;4.10;;
49784;SDS011;35679;38.732;-121.358;2023-06-26T16:27:41;5.63;;;3.80;;
49784;SDS011;35679;38.732;-121.358;2023-06-26T16:30:34;5.25;;;4.22;;
49784;SDS011;35679;38.732;-121.358;2023-06-26T16:33:23;5.90;;;4.00;;
49784;SDS011;35679;38.732;-121.358;2023-06-26T16:36:13;5.63;;;4.18;;
49784;SDS011;35679;38.732;-121.358;2023-06-26T16:39:02;5.30;;;4.15;;
49784;SDS011;35679;38.732;-121.358;2023-06-26T16:41:53;5.60;;;3.75;;
49784;SDS011;35679;38.732;-121.358;2023-06-26T16:44:42;5.43;;;3.90;;
49784;SDS011;35679;38.732;-121.358;2023-06-26T16:47:32;4.05;;;3.75;;